sensor_id;sensor_type;location;lat;lon;timestamp;pressure;altitude;pressure_sealevel;temperature
25514;BMP180;48128;54.242;10.280;2022-11-25T00:02:12;100899.00;;;3.40
25514;BMP180;48128;54.242;10.280;2022-11-25T00:04:38;100898.00;;;3.50
25514;BMP180;48128;54.242;10.280;2022-11-25T00:07:05;100891.00;;;3.50
25514;BMP180;48128;54.242;10.280;2022-11-25T00:09:32;100890.00;;;3.60
25514;BMP180;48128;54.242;10.280;2022-11-25T00:11:59;100887.00;;;3.60
25514;BMP180;48128;54.242;10.280;2022-11-25T00:14:25;100894.00;;;3.60
25514;BMP180;48128;54.242;10.280;2022-11-25T00:16:52;100895.00;;;3.60
25514;BMP180;48128;54.242;10.280;2022-11-25T00:19:19;100895.00;;;3.60
25514;BMP180;48128;54.242;10.280;2022-11-25T00:21:46;100892.00;;;3.70
25514;BMP180;48128;54.242;10.280;2022-11-25T00:24:14;100888.00;;;3.70
25514;BMP180;48128;54.242;10.280;2022-11-25T00:26:41;100894.00;;;3.70
25514;BMP180;48128;54.242;10.280;2022-11-25T00:29:10;100891.00;;;3.70
25514;BMP180;48128;54.242;10.280;2022-11-25T00:31:38;100883.00;;;3.70
25514;BMP180;48128;54.242;10.280;2022-11-25T00:34:06;100880.00;;;3.70
25514;BMP180;48128;54.242;10.280;2022-11-25T00:36:35;100879.00;;;3.60
25514;BMP180;48128;54.242;10.280;2022-11-25T00:39:08;100877.00;;;3.70
25514;BMP180;48128;54.242;10.280;2022-11-25T00:41:36;100868.00;;;3.60
25514;BMP180;48128;54.242;10.280;2022-11-25T00:44:21;100876.00;;;3.60
25514;BMP180;48128;54.242;10.280;2022-11-25T00:49:45;100868.00;;;3.60
25514;BMP180;48128;54.242;10.280;2022-11-25T00:52:14;100869.00;;;3.60
25514;BMP180;48128;54.242;10.280;2022-11-25T00:54:41;100878.00;;;3.60
25514;BMP180;48128;54.242;10.280;2022-11-25T00:57:11;100884.00;;;3.60
25514;BMP180;48128;54.242;10.280;2022-11-25T00:59:37;100884.00;;;3.60
25514;BMP180;48128;54.242;10.280;2022-11-25T01:02:04;100865.00;;;3.60
25514;BMP180;48128;54.242;10.280;2022-11-25T01:04:31;100871.00;;;3.60
25514;BMP180;48128;54.242;10.280;2022-11-25T01:06:59;100884.00;;;3.60
25514;BMP180;48128;54.242;10.280;2022-11-25T01:09:28;100881.00;;;3.50
25514;BMP180;48128;54.242;10.280;2022-11-25T01:11:54;100887.00;;;3.50
25514;BMP180;48128;54.242;10.280;2022-11-25T01:14:22;100883.00;;;3.50
25514;BMP180;48128;54.242;10.280;2022-11-25T01:16:49;100893.00;;;3.50
25514;BMP180;48128;54.242;10.280;2022-11-25T01:19:16;100891.00;;;3.50
25514;BMP180;48128;54.242;10.280;2022-11-25T01:21:43;100895.00;;;3.50
25514;BMP180;48128;54.242;10.280;2022-11-25T01:24:12;100897.00;;;3.50
25514;BMP180;48128;54.242;10.280;2022-11-25T01:26:40;100893.00;;;3.50
25514;BMP180;48128;54.242;10.280;2022-11-25T01:29:11;100900.00;;;3.60
25514;BMP180;48128;54.242;10.280;2022-11-25T01:31:39;100884.00;;;3.60
25514;BMP180;48128;54.242;10.280;2022-11-25T01:34:09;100892.00;;;3.60
25514;BMP180;48128;54.242;10.280;2022-11-25T01:36:37;100887.00;;;3.60
25514;BMP180;48128;54.242;10.280;2022-11-25T01:39:03;100896.00;;;3.60
25514;BMP180;48128;54.242;10.280;2022-11-25T01:41:32;100895.00;;;3.60
25514;BMP180;48128;54.242;10.280;2022-11-25T01:44:25;100901.00;;;3.60
25514;BMP180;48128;54.242;10.280;2022-11-25T01:47:04;100887.00;;;3.50
25514;BMP180;48128;54.242;10.280;2022-11-25T01:49:39;100894.00;;;3.50
25514;BMP180;48128;54.242;10.280;2022-11-25T01:52:17;100885.00;;;3.50
25514;BMP180;48128;54.242;10.280;2022-11-25T01:54:52;100890.00;;;3.50
25514;BMP180;48128;54.242;10.280;2022-11-25T01:57:25;100862.00;;;3.50
25514;BMP180;48128;54.242;10.280;2022-11-25T01:59:55;100873.00;;;3.50
25514;BMP180;48128;54.242;10.280;2022-11-25T02:02:23;100881.00;;;3.50
25514;BMP180;48128;54.242;10.280;2022-11-25T02:04:50;100861.00;;;3.40
25514;BMP180;48128;54.242;10.280;2022-11-25T02:07:41;100872.00;;;3.40
25514;BMP180;48128;54.242;10.280;2022-11-25T02:10:13;100855.00;;;3.40
25514;BMP180;48128;54.242;10.280;2022-11-25T02:12:42;100856.00;;;3.40
25514;BMP180;48128;54.242;10.280;2022-11-25T02:15:11;100862.00;;;3.30
25514;BMP180;48128;54.242;10.280;2022-11-25T02:17:38;100860.00;;;3.30
25514;BMP180;48128;54.242;10.280;2022-11-25T02:20:09;100864.00;;;3.30
25514;BMP180;48128;54.242;10.280;2022-11-25T02:25:25;100848.00;;;3.20
25514;BMP180;48128;54.242;10.280;2022-11-25T02:27:56;100832.00;;;3.20
25514;BMP180;48128;54.242;10.280;2022-11-25T02:30:24;100832.00;;;3.20
25514;BMP180;48128;54.242;10.280;2022-11-25T02:32:51;100828.00;;;3.20
25514;BMP180;48128;54.242;10.280;2022-11-25T02:38:04;100844.00;;;3.20
25514;BMP180;48128;54.242;10.280;2022-11-25T02:40:31;100851.00;;;3.20
25514;BMP180;48128;54.242;10.280;2022-11-25T02:43:00;100850.00;;;3.20
25514;BMP180;48128;54.242;10.280;2022-11-25T02:45:32;100865.00;;;3.30
25514;BMP180;48128;54.242;10.280;2022-11-25T02:48:01;100850.00;;;3.30
25514;BMP180;48128;54.242;10.280;2022-11-25T02:50:27;100846.00;;;3.30
25514;BMP180;48128;54.242;10.280;2022-11-25T02:52:54;100843.00;;;3.30
25514;BMP180;48128;54.242;10.280;2022-11-25T02:55:21;100837.00;;;3.30
25514;BMP180;48128;54.242;10.280;2022-11-25T02:57:48;100835.00;;;3.20
25514;BMP180;48128;54.242;10.280;2022-11-25T03:00:15;100847.00;;;3.20
25514;BMP180;48128;54.242;10.280;2022-11-25T15:09:43;101126.00;;;6.70
25514;BMP180;48128;54.242;10.280;2022-11-25T15:12:14;101134.00;;;6.70
25514;BMP180;48128;54.242;10.280;2022-11-25T15:14:46;101136.00;;;6.70
25514;BMP180;48128;54.242;10.280;2022-11-25T15:17:41;101147.00;;;6.70
25514;BMP180;48128;54.242;10.280;2022-11-25T15:20:13;101138.00;;;6.60
25514;BMP180;48128;54.242;10.280;2022-11-25T15:22:48;101140.00;;;6.60
25514;BMP180;48128;54.242;10.280;2022-11-25T15:29:11;101152.00;;;6.60
25514;BMP180;48128;54.242;10.280;2022-11-25T15:31:40;101149.00;;;6.60
25514;BMP180;48128;54.242;10.280;2022-11-25T15:34:10;101148.00;;;6.60
25514;BMP180;48128;54.242;10.280;2022-11-25T15:36:38;101161.00;;;6.60
25514;BMP180;48128;54.242;10.280;2022-11-25T15:42:04;101166.00;;;6.60
25514;BMP180;48128;54.242;10.280;2022-11-25T15:44:37;101171.00;;;6.50
25514;BMP180;48128;54.242;10.280;2022-11-25T15:47:27;101178.00;;;6.50
25514;BMP180;48128;54.242;10.280;2022-11-25T15:52:31;101175.00;;;6.50
25514;BMP180;48128;54.242;10.280;2022-11-25T15:55:16;101182.00;;;6.50
25514;BMP180;48128;54.242;10.280;2022-11-25T15:57:44;101179.00;;;6.50
25514;BMP180;48128;54.242;10.280;2022-11-25T16:00:17;101186.00;;;6.50
25514;BMP180;48128;54.242;10.280;2022-11-25T16:07:59;101183.00;;;6.50
25514;BMP180;48128;54.242;10.280;2022-11-25T16:10:47;101187.00;;;6.50
25514;BMP180;48128;54.242;10.280;2022-11-25T16:16:09;101194.00;;;6.50
25514;BMP180;48128;54.242;10.280;2022-11-25T16:28:59;101213.00;;;6.50
25514;BMP180;48128;54.242;10.280;2022-11-25T16:31:27;101236.00;;;6.50
25514;BMP180;48128;54.242;10.280;2022-11-25T16:34:14;101232.00;;;6.50
25514;BMP180;48128;54.242;10.280;2022-11-25T16:37:03;101226.00;;;6.50
25514;BMP180;48128;54.242;10.280;2022-11-25T16:39:35;101232.00;;;6.50
25514;BMP180;48128;54.242;10.280;2022-11-25T16:42:06;101227.00;;;6.60
25514;BMP180;48128;54.242;10.280;2022-11-25T16:44:33;101237.00;;;6.60
25514;BMP180;48128;54.242;10.280;2022-11-25T16:47:02;101239.00;;;6.60
25514;BMP180;48128;54.242;10.280;2022-11-25T16:49:29;101244.00;;;6.60
25514;BMP180;48128;54.242;10.280;2022-11-25T16:51:56;101249.00;;;6.60
25514;BMP180;48128;54.242;10.280;2022-11-25T16:54:23;101243.00;;;6.60
25514;BMP180;48128;54.242;10.280;2022-11-25T16:56:53;101248.00;;;6.60
25514;BMP180;48128;54.242;10.280;2022-11-25T16:59:30;101246.00;;;6.60
25514;BMP180;48128;54.242;10.280;2022-11-25T17:01:58;101253.00;;;6.60
25514;BMP180;48128;54.242;10.280;2022-11-25T17:04:26;101260.00;;;6.60
25514;BMP180;48128;54.242;10.280;2022-11-25T17:06:56;101269.00;;;6.60
25514;BMP180;48128;54.242;10.280;2022-11-25T17:09:43;101278.00;;;6.70
25514;BMP180;48128;54.242;10.280;2022-11-25T17:12:15;101273.00;;;6.70
25514;BMP180;48128;54.242;10.280;2022-11-25T17:14:43;101261.00;;;6.70
25514;BMP180;48128;54.242;10.280;2022-11-25T17:17:12;101275.00;;;6.70
25514;BMP180;48128;54.242;10.280;2022-11-25T17:19:49;101269.00;;;6.70
25514;BMP180;48128;54.242;10.280;2022-11-25T17:22:21;101278.00;;;6.70
25514;BMP180;48128;54.242;10.280;2022-11-25T17:24:48;101265.00;;;6.60
25514;BMP180;48128;54.242;10.280;2022-11-25T17:27:26;101271.00;;;6.60
25514;BMP180;48128;54.242;10.280;2022-11-25T17:29:54;101279.00;;;6.60
25514;BMP180;48128;54.242;10.280;2022-11-25T17:32:21;101277.00;;;6.60
25514;BMP180;48128;54.242;10.280;2022-11-25T17:34:48;101275.00;;;6.60
25514;BMP180;48128;54.242;10.280;2022-11-25T17:37:20;101281.00;;;6.60
25514;BMP180;48128;54.242;10.280;2022-11-25T17:39:49;101286.00;;;6.60
25514;BMP180;48128;54.242;10.280;2022-11-25T17:42:22;101292.00;;;6.50
25514;BMP180;48128;54.242;10.280;2022-11-25T17:44:50;101279.00;;;6.60
25514;BMP180;48128;54.242;10.280;2022-11-25T17:47:20;101277.00;;;6.50
25514;BMP180;48128;54.242;10.280;2022-11-25T17:49:47;101278.00;;;6.50
25514;BMP180;48128;54.242;10.280;2022-11-25T17:52:15;101290.00;;;6.50
25514;BMP180;48128;54.242;10.280;2022-11-25T17:54:42;101278.00;;;6.60
25514;BMP180;48128;54.242;10.280;2022-11-25T17:57:18;101294.00;;;6.60
25514;BMP180;48128;54.242;10.280;2022-11-25T17:59:46;101296.00;;;6.50
25514;BMP180;48128;54.242;10.280;2022-11-25T18:02:18;101296.00;;;6.60
25514;BMP180;48128;54.242;10.280;2022-11-25T18:04:45;101304.00;;;6.60
25514;BMP180;48128;54.242;10.280;2022-11-25T18:07:12;101301.00;;;6.60
25514;BMP180;48128;54.242;10.280;2022-11-25T18:09:39;101314.00;;;6.60
25514;BMP180;48128;54.242;10.280;2022-11-25T18:12:25;101310.00;;;6.60
25514;BMP180;48128;54.242;10.280;2022-11-25T18:14:54;101310.00;;;6.60
25514;BMP180;48128;54.242;10.280;2022-11-25T18:17:21;101326.00;;;6.60
25514;BMP180;48128;54.242;10.280;2022-11-25T18:19:48;101321.00;;;6.60
25514;BMP180;48128;54.242;10.280;2022-11-25T18:22:23;101330.00;;;6.60
25514;BMP180;48128;54.242;10.280;2022-11-25T18:24:51;101335.00;;;6.60
25514;BMP180;48128;54.242;10.280;2022-11-25T18:27:26;101337.00;;;6.60
25514;BMP180;48128;54.242;10.280;2022-11-25T18:29:53;101345.00;;;6.60
25514;BMP180;48128;54.242;10.280;2022-11-25T18:32:21;101342.00;;;6.60
25514;BMP180;48128;54.242;10.280;2022-11-25T18:34:49;101342.00;;;6.60
25514;BMP180;48128;54.242;10.280;2022-11-25T18:37:18;101339.00;;;6.60
25514;BMP180;48128;54.242;10.280;2022-11-25T18:39:45;101357.00;;;6.60
25514;BMP180;48128;54.242;10.280;2022-11-25T18:42:23;101358.00;;;6.60
25514;BMP180;48128;54.242;10.280;2022-11-25T18:44:52;101349.00;;;6.60
25514;BMP180;48128;54.242;10.280;2022-11-25T18:47:19;101350.00;;;6.60
25514;BMP180;48128;54.242;10.280;2022-11-25T18:49:46;101360.00;;;6.60
25514;BMP180;48128;54.242;10.280;2022-11-25T18:52:19;101359.00;;;6.60
25514;BMP180;48128;54.242;10.280;2022-11-25T18:54:46;101364.00;;;6.60
25514;BMP180;48128;54.242;10.280;2022-11-25T18:57:14;101371.00;;;6.60
25514;BMP180;48128;54.242;10.280;2022-11-25T18:59:41;101366.00;;;6.60
25514;BMP180;48128;54.242;10.280;2022-11-25T19:02:14;101376.00;;;6.60
25514;BMP180;48128;54.242;10.280;2022-11-25T19:04:42;101372.00;;;6.60
25514;BMP180;48128;54.242;10.280;2022-11-25T19:07:09;101363.00;;;6.60
25514;BMP180;48128;54.242;10.280;2022-11-25T19:09:36;101379.00;;;6.60
25514;BMP180;48128;54.242;10.280;2022-11-25T19:12:03;101379.00;;;6.60
25514;BMP180;48128;54.242;10.280;2022-11-25T19:14:34;101372.00;;;6.60
25514;BMP180;48128;54.242;10.280;2022-11-25T19:17:06;101391.00;;;6.60
25514;BMP180;48128;54.242;10.280;2022-11-25T19:19:34;101389.00;;;6.60
25514;BMP180;48128;54.242;10.280;2022-11-25T19:22:10;101382.00;;;6.60
25514;BMP180;48128;54.242;10.280;2022-11-25T19:24:37;101385.00;;;6.70
25514;BMP180;48128;54.242;10.280;2022-11-25T19:27:04;101389.00;;;6.60
25514;BMP180;48128;54.242;10.280;2022-11-25T19:29:33;101395.00;;;6.70
25514;BMP180;48128;54.242;10.280;2022-11-25T19:32:44;101390.00;;;6.60
25514;BMP180;48128;54.242;10.280;2022-11-25T19:35:05;101396.00;;;6.60
25514;BMP180;48128;54.242;10.280;2022-11-25T19:37:34;101408.00;;;6.60
25514;BMP180;48128;54.242;10.280;2022-11-25T19:40:01;101402.00;;;6.60
25514;BMP180;48128;54.242;10.280;2022-11-25T19:42:28;101407.00;;;6.60
25514;BMP180;48128;54.242;10.280;2022-11-25T19:44:57;101396.00;;;6.50
25514;BMP180;48128;54.242;10.280;2022-11-25T19:47:25;101409.00;;;6.50
25514;BMP180;48128;54.242;10.280;2022-11-25T19:49:54;101408.00;;;6.50
25514;BMP180;48128;54.242;10.280;2022-11-25T19:52:27;101411.00;;;6.50
25514;BMP180;48128;54.242;10.280;2022-11-25T19:54:56;101425.00;;;6.60
25514;BMP180;48128;54.242;10.280;2022-11-25T19:57:23;101437.00;;;6.60
25514;BMP180;48128;54.242;10.280;2022-11-25T19:59:50;101433.00;;;6.60
25514;BMP180;48128;54.242;10.280;2022-11-25T20:02:19;101435.00;;;6.60
25514;BMP180;48128;54.242;10.280;2022-11-25T20:04:48;101440.00;;;6.50
25514;BMP180;48128;54.242;10.280;2022-11-25T20:07:16;101444.00;;;6.50
25514;BMP180;48128;54.242;10.280;2022-11-25T20:09:45;101444.00;;;6.50
25514;BMP180;48128;54.242;10.280;2022-11-25T20:12:24;101435.00;;;6.50
25514;BMP180;48128;54.242;10.280;2022-11-25T20:14:51;101458.00;;;6.50
25514;BMP180;48128;54.242;10.280;2022-11-25T20:17:32;101454.00;;;6.50
25514;BMP180;48128;54.242;10.280;2022-11-25T20:22:33;101459.00;;;6.60
25514;BMP180;48128;54.242;10.280;2022-11-25T20:25:03;101468.00;;;6.60
25514;BMP180;48128;54.242;10.280;2022-11-25T20:27:30;101463.00;;;6.60
25514;BMP180;48128;54.242;10.280;2022-11-25T20:29:57;101475.00;;;6.60
25514;BMP180;48128;54.242;10.280;2022-11-25T20:32:26;101478.00;;;6.60
25514;BMP180;48128;54.242;10.280;2022-11-25T20:34:54;101468.00;;;6.60
25514;BMP180;48128;54.242;10.280;2022-11-25T20:37:21;101483.00;;;6.50
25514;BMP180;48128;54.242;10.280;2022-11-25T20:39:52;101471.00;;;6.50
25514;BMP180;48128;54.242;10.280;2022-11-25T20:42:20;101481.00;;;6.50
25514;BMP180;48128;54.242;10.280;2022-11-25T20:44:48;101487.00;;;6.50
25514;BMP180;48128;54.242;10.280;2022-11-25T20:47:21;101486.00;;;6.40
25514;BMP180;48128;54.242;10.280;2022-11-25T20:49:50;101489.00;;;6.40
25514;BMP180;48128;54.242;10.280;2022-11-25T20:52:28;101495.00;;;6.50
25514;BMP180;48128;54.242;10.280;2022-11-25T20:54:56;101494.00;;;6.50
25514;BMP180;48128;54.242;10.280;2022-11-25T20:57:23;101490.00;;;6.50
25514;BMP180;48128;54.242;10.280;2022-11-25T20:59:50;101492.00;;;6.60
25514;BMP180;48128;54.242;10.280;2022-11-25T21:02:16;101493.00;;;6.60
25514;BMP180;48128;54.242;10.280;2022-11-25T21:04:46;101498.00;;;6.60
25514;BMP180;48128;54.242;10.280;2022-11-25T21:07:13;101497.00;;;6.60
25514;BMP180;48128;54.242;10.280;2022-11-25T21:09:41;101505.00;;;6.60
25514;BMP180;48128;54.242;10.280;2022-11-25T21:12:12;101512.00;;;6.70
25514;BMP180;48128;54.242;10.280;2022-11-25T21:14:45;101507.00;;;6.70
25514;BMP180;48128;54.242;10.280;2022-11-25T21:17:12;101518.00;;;6.80
25514;BMP180;48128;54.242;10.280;2022-11-25T21:19:39;101514.00;;;6.80
25514;BMP180;48128;54.242;10.280;2022-11-25T21:22:05;101524.00;;;6.80
25514;BMP180;48128;54.242;10.280;2022-11-25T21:24:35;101524.00;;;6.80
25514;BMP180;48128;54.242;10.280;2022-11-25T21:27:10;101520.00;;;6.80
25514;BMP180;48128;54.242;10.280;2022-11-25T21:29:43;101545.00;;;6.80
25514;BMP180;48128;54.242;10.280;2022-11-25T21:34:44;101552.00;;;6.80
25514;BMP180;48128;54.242;10.280;2022-11-25T21:37:11;101550.00;;;6.90
25514;BMP180;48128;54.242;10.280;2022-11-25T21:39:38;101567.00;;;6.90
25514;BMP180;48128;54.242;10.280;2022-11-25T21:42:06;101567.00;;;6.90
25514;BMP180;48128;54.242;10.280;2022-11-25T21:44:41;101557.00;;;6.90
25514;BMP180;48128;54.242;10.280;2022-11-25T21:47:19;101562.00;;;6.80
25514;BMP180;48128;54.242;10.280;2022-11-25T21:49:46;101566.00;;;6.80
25514;BMP180;48128;54.242;10.280;2022-11-25T21:52:13;101560.00;;;6.80
25514;BMP180;48128;54.242;10.280;2022-11-25T21:54:41;101574.00;;;6.80
25514;BMP180;48128;54.242;10.280;2022-11-25T21:57:20;101578.00;;;6.80
25514;BMP180;48128;54.242;10.280;2022-11-25T21:59:48;101576.00;;;6.80
25514;BMP180;48128;54.242;10.280;2022-11-25T22:02:17;101578.00;;;6.80
25514;BMP180;48128;54.242;10.280;2022-11-25T22:04:44;101577.00;;;6.80
25514;BMP180;48128;54.242;10.280;2022-11-25T22:07:11;101584.00;;;6.80
25514;BMP180;48128;54.242;10.280;2022-11-25T22:09:38;101591.00;;;6.80
25514;BMP180;48128;54.242;10.280;2022-11-25T22:12:08;101586.00;;;6.80
25514;BMP180;48128;54.242;10.280;2022-11-25T22:14:42;101585.00;;;6.90
25514;BMP180;48128;54.242;10.280;2022-11-25T22:17:13;101592.00;;;6.90
25514;BMP180;48128;54.242;10.280;2022-11-25T22:19:42;101590.00;;;6.90
25514;BMP180;48128;54.242;10.280;2022-11-25T22:22:14;101583.00;;;6.90
25514;BMP180;48128;54.242;10.280;2022-11-25T22:24:41;101598.00;;;6.90
25514;BMP180;48128;54.242;10.280;2022-11-25T22:27:22;101586.00;;;6.90
25514;BMP180;48128;54.242;10.280;2022-11-25T22:29:50;101598.00;;;6.80
25514;BMP180;48128;54.242;10.280;2022-11-25T22:32:17;101600.00;;;6.70
25514;BMP180;48128;54.242;10.280;2022-11-25T22:34:44;101597.00;;;6.70
25514;BMP180;48128;54.242;10.280;2022-11-25T22:37:16;101597.00;;;6.50
25514;BMP180;48128;54.242;10.280;2022-11-25T22:39:43;101604.00;;;6.50
25514;BMP180;48128;54.242;10.280;2022-11-25T22:44:50;101609.00;;;6.40
25514;BMP180;48128;54.242;10.280;2022-11-25T22:47:32;101603.00;;;6.30
25514;BMP180;48128;54.242;10.280;2022-11-25T22:50:07;101621.00;;;6.30
25514;BMP180;48128;54.242;10.280;2022-11-25T22:52:39;101615.00;;;6.20
25514;BMP180;48128;54.242;10.280;2022-11-25T22:55:25;101623.00;;;6.30
25514;BMP180;48128;54.242;10.280;2022-11-25T22:57:54;101626.00;;;6.30
25514;BMP180;48128;54.242;10.280;2022-11-25T23:00:26;101633.00;;;6.30
25514;BMP180;48128;54.242;10.280;2022-11-25T23:02:55;101631.00;;;6.30
25514;BMP180;48128;54.242;10.280;2022-11-25T23:05:29;101618.00;;;6.40
25514;BMP180;48128;54.242;10.280;2022-11-25T23:08:29;101629.00;;;6.50
25514;BMP180;48128;54.242;10.280;2022-11-25T23:10:57;101639.00;;;6.50
25514;BMP180;48128;54.242;10.280;2022-11-25T23:13:24;101633.00;;;6.40
25514;BMP180;48128;54.242;10.280;2022-11-25T23:15:58;101639.00;;;6.50
25514;BMP180;48128;54.242;10.280;2022-11-25T23:18:45;101641.00;;;6.50
25514;BMP180;48128;54.242;10.280;2022-11-25T23:21:22;101641.00;;;6.50
25514;BMP180;48128;54.242;10.280;2022-11-25T23:23:49;101645.00;;;6.50
25514;BMP180;48128;54.242;10.280;2022-11-25T23:26:16;101647.00;;;6.50
25514;BMP180;48128;54.242;10.280;2022-11-25T23:28:43;101643.00;;;6.50
25514;BMP180;48128;54.242;10.280;2022-11-25T23:31:14;101659.00;;;6.60
25514;BMP180;48128;54.242;10.280;2022-11-25T23:33:48;101658.00;;;6.60
25514;BMP180;48128;54.242;10.280;2022-11-25T23:36:23;101666.00;;;6.60
25514;BMP180;48128;54.242;10.280;2022-11-25T23:38:58;101666.00;;;6.60
25514;BMP180;48128;54.242;10.280;2022-11-25T23:41:28;101672.00;;;6.70
25514;BMP180;48128;54.242;10.280;2022-11-25T23:43:56;101675.00;;;6.70
25514;BMP180;48128;54.242;10.280;2022-11-25T23:46:27;101675.00;;;6.70
25514;BMP180;48128;54.242;10.280;2022-11-25T23:48:57;101673.00;;;6.60
25514;BMP180;48128;54.242;10.280;2022-11-25T23:51:25;101675.00;;;6.60
25514;BMP180;48128;54.242;10.280;2022-11-25T23:53:52;101682.00;;;6.60
25514;BMP180;48128;54.242;10.280;2022-11-25T23:56:20;101686.00;;;6.60
25514;BMP180;48128;54.242;10.280;2022-11-25T23:58:46;101706.00;;;6.60
